sensor_id;sensor_type;location;lat;lon;timestamp;pressure;altitude;pressure_sealevel;temperature;humidity
20444;BME280;10381;53.730;10.010;2023-03-14T00:02:26;98350.19;;;9.28;100.00
20444;BME280;10381;53.730;10.010;2023-03-14T00:06:27;98350.28;;;9.35;100.00
20444;BME280;10381;53.730;10.010;2023-03-14T00:10:27;98346.00;;;9.34;100.00
20444;BME280;10381;53.730;10.010;2023-03-14T00:14:29;98350.69;;;9.17;100.00
20444;BME280;10381;53.730;10.010;2023-03-14T00:18:29;98357.81;;;9.02;100.00
20444;BME280;10381;53.730;10.010;2023-03-14T00:22:31;98357.47;;;9.05;100.00
20444;BME280;10381;53.730;10.010;2023-03-14T00:26:31;98367.34;;;9.17;100.00
20444;BME280;10381;53.730;10.010;2023-03-14T00:30:31;98361.19;;;9.10;100.00
20444;BME280;10381;53.730;10.010;2023-03-14T00:34:32;98367.63;;;9.23;100.00
20444;BME280;10381;53.730;10.010;2023-03-14T00:38:33;98372.13;;;9.44;100.00
20444;BME280;10381;53.730;10.010;2023-03-14T00:42:34;98356.03;;;9.60;100.00
20444;BME280;10381;53.730;10.010;2023-03-14T00:46:34;98355.50;;;9.50;100.00
20444;BME280;10381;53.730;10.010;2023-03-14T00:50:34;98342.75;;;9.53;100.00
20444;BME280;10381;53.730;10.010;2023-03-14T00:54:35;98334.50;;;9.42;100.00
20444;BME280;10381;53.730;10.010;2023-03-14T00:58:36;98318.25;;;9.45;100.00
20444;BME280;10381;53.730;10.010;2023-03-14T01:02:36;98320.22;;;9.57;100.00
20444;BME280;10381;53.730;10.010;2023-03-14T01:06:37;98326.38;;;9.43;100.00
20444;BME280;10381;53.730;10.010;2023-03-14T01:10:38;98321.41;;;9.55;100.00
20444;BME280;10381;53.730;10.010;2023-03-14T01:14:40;98341.97;;;9.59;100.00
20444;BME280;10381;53.730;10.010;2023-03-14T01:18:42;98340.59;;;9.64;100.00
20444;BME280;10381;53.730;10.010;2023-03-14T01:22:43;98336.63;;;9.74;100.00
20444;BME280;10381;53.730;10.010;2023-03-14T01:26:44;98341.59;;;9.84;100.00
20444;BME280;10381;53.730;10.010;2023-03-14T01:30:44;98332.63;;;9.85;100.00
20444;BME280;10381;53.730;10.010;2023-03-14T01:34:44;98337.66;;;10.01;100.00
20444;BME280;10381;53.730;10.010;2023-03-14T01:38:45;98327.41;;;9.92;100.00
20444;BME280;10381;53.730;10.010;2023-03-14T01:42:56;98306.59;;;9.82;100.00
20444;BME280;10381;53.730;10.010;2023-03-14T01:46:56;98306.78;;;9.59;100.00
20444;BME280;10381;53.730;10.010;2023-03-14T01:50:58;98274.72;;;9.41;100.00
20444;BME280;10381;53.730;10.010;2023-03-14T01:55:04;98266.72;;;9.34;100.00
20444;BME280;10381;53.730;10.010;2023-03-14T01:59:07;98256.72;;;9.29;100.00
20444;BME280;10381;53.730;10.010;2023-03-14T02:03:11;98269.56;;;9.32;100.00
20444;BME280;10381;53.730;10.010;2023-03-14T02:07:20;98271.31;;;9.25;100.00
20444;BME280;10381;53.730;10.010;2023-03-14T02:11:26;98281.06;;;9.25;100.00
20444;BME280;10381;53.730;10.010;2023-03-14T02:15:28;98283.56;;;9.33;100.00
20444;BME280;10381;53.730;10.010;2023-03-14T02:19:40;98244.88;;;9.47;100.00
20444;BME280;10381;53.730;10.010;2023-03-14T02:24:18;98238.22;;;9.29;100.00
20444;BME280;10381;53.730;10.010;2023-03-14T02:28:17;98216.47;;;9.27;100.00
20444;BME280;10381;53.730;10.010;2023-03-14T02:32:19;98225.66;;;9.10;100.00
20444;BME280;10381;53.730;10.010;2023-03-14T02:36:20;98234.09;;;9.20;100.00
20444;BME280;10381;53.730;10.010;2023-03-14T02:40:21;98241.50;;;9.31;100.00
20444;BME280;10381;53.730;10.010;2023-03-14T02:44:21;98233.03;;;9.43;100.00
20444;BME280;10381;53.730;10.010;2023-03-14T02:48:25;98236.72;;;9.42;100.00
20444;BME280;10381;53.730;10.010;2023-03-14T02:52:26;98247.84;;;9.37;100.00
20444;BME280;10381;53.730;10.010;2023-03-14T02:56:26;98245.28;;;9.44;100.00
20444;BME280;10381;53.730;10.010;2023-03-14T03:00:26;98243.28;;;9.52;100.00
20444;BME280;10381;53.730;10.010;2023-03-14T03:04:26;98235.56;;;9.51;100.00
20444;BME280;10381;53.730;10.010;2023-03-14T03:08:28;98233.09;;;9.49;100.00
20444;BME280;10381;53.730;10.010;2023-03-14T03:12:28;98243.56;;;9.57;100.00
20444;BME280;10381;53.730;10.010;2023-03-14T03:16:28;98232.44;;;9.69;100.00
20444;BME280;10381;53.730;10.010;2023-03-14T03:20:29;98233.28;;;9.69;100.00
20444;BME280;10381;53.730;10.010;2023-03-14T03:24:29;98232.84;;;9.66;100.00
20444;BME280;10381;53.730;10.010;2023-03-14T03:28:29;98221.53;;;9.78;100.00
20444;BME280;10381;53.730;10.010;2023-03-14T03:32:30;98207.09;;;9.81;100.00
20444;BME280;10381;53.730;10.010;2023-03-14T03:36:30;98208.16;;;9.87;100.00
20444;BME280;10381;53.730;10.010;2023-03-14T03:40:30;98186.22;;;9.93;100.00
20444;BME280;10381;53.730;10.010;2023-03-14T03:44:31;98188.69;;;9.94;100.00
20444;BME280;10381;53.730;10.010;2023-03-14T03:48:31;98187.88;;;9.94;100.00
20444;BME280;10381;53.730;10.010;2023-03-14T03:52:31;98172.00;;;9.94;100.00
20444;BME280;10381;53.730;10.010;2023-03-14T03:56:32;98167.47;;;9.88;100.00
20444;BME280;10381;53.730;10.010;2023-03-14T04:00:32;98169.97;;;9.96;100.00
20444;BME280;10381;53.730;10.010;2023-03-14T04:04:33;98170.34;;;9.86;100.00
20444;BME280;10381;53.730;10.010;2023-03-14T04:08:33;98172.53;;;9.82;100.00
20444;BME280;10381;53.730;10.010;2023-03-14T04:12:33;98175.13;;;9.76;100.00
20444;BME280;10381;53.730;10.010;2023-03-14T04:16:34;98176.00;;;9.83;100.00
20444;BME280;10381;53.730;10.010;2023-03-14T04:20:34;98162.34;;;9.79;100.00
20444;BME280;10381;53.730;10.010;2023-03-14T04:24:35;98147.50;;;9.78;100.00
20444;BME280;10381;53.730;10.010;2023-03-14T04:28:35;98156.44;;;9.77;100.00
20444;BME280;10381;53.730;10.010;2023-03-14T04:32:39;98151.78;;;9.79;100.00
20444;BME280;10381;53.730;10.010;2023-03-14T04:36:39;98145.31;;;9.89;100.00
20444;BME280;10381;53.730;10.010;2023-03-14T04:40:40;98152.69;;;9.93;100.00
20444;BME280;10381;53.730;10.010;2023-03-14T04:44:41;98175.09;;;10.04;100.00
20444;BME280;10381;53.730;10.010;2023-03-14T04:48:43;98162.78;;;9.48;100.00
20444;BME280;10381;53.730;10.010;2023-03-14T04:52:43;98168.03;;;9.20;100.00
20444;BME280;10381;53.730;10.010;2023-03-14T04:56:43;98167.50;;;9.03;100.00
20444;BME280;10381;53.730;10.010;2023-03-14T05:00:45;98169.56;;;8.86;100.00
20444;BME280;10381;53.730;10.010;2023-03-14T05:04:45;98169.69;;;8.57;100.00
20444;BME280;10381;53.730;10.010;2023-03-14T05:08:45;98166.81;;;8.22;100.00
20444;BME280;10381;53.730;10.010;2023-03-14T05:12:46;98171.38;;;7.98;100.00
20444;BME280;10381;53.730;10.010;2023-03-14T05:16:46;98185.69;;;7.89;100.00
20444;BME280;10381;53.730;10.010;2023-03-14T05:20:46;98183.66;;;7.91;100.00
20444;BME280;10381;53.730;10.010;2023-03-14T05:24:47;98182.84;;;7.76;100.00
20444;BME280;10381;53.730;10.010;2023-03-14T05:28:47;98192.47;;;7.54;100.00
20444;BME280;10381;53.730;10.010;2023-03-14T05:32:47;98193.38;;;7.46;100.00
20444;BME280;10381;53.730;10.010;2023-03-14T05:36:48;98209.06;;;7.39;100.00
20444;BME280;10381;53.730;10.010;2023-03-14T05:40:48;98206.16;;;7.34;100.00
20444;BME280;10381;53.730;10.010;2023-03-14T05:44:48;98208.16;;;7.32;100.00
20444;BME280;10381;53.730;10.010;2023-03-14T05:48:49;98198.78;;;7.30;100.00
20444;BME280;10381;53.730;10.010;2023-03-14T05:52:49;98207.13;;;7.33;100.00
20444;BME280;10381;53.730;10.010;2023-03-14T05:56:49;98213.16;;;7.42;100.00
20444;BME280;10381;53.730;10.010;2023-03-14T06:00:50;98209.06;;;7.39;100.00
20444;BME280;10381;53.730;10.010;2023-03-14T06:04:52;98216.44;;;7.44;100.00
20444;BME280;10381;53.730;10.010;2023-03-14T06:08:52;98218.06;;;7.45;100.00
20444;BME280;10381;53.730;10.010;2023-03-14T06:12:52;98215.72;;;7.50;100.00
20444;BME280;10381;53.730;10.010;2023-03-14T06:16:53;98216.44;;;7.44;100.00
20444;BME280;10381;53.730;10.010;2023-03-14T06:20:54;98212.09;;;7.51;100.00
20444;BME280;10381;53.730;10.010;2023-03-14T06:24:56;98215.28;;;7.61;100.00
20444;BME280;10381;53.730;10.010;2023-03-14T06:28:56;98219.84;;;7.67;100.00
20444;BME280;10381;53.730;10.010;2023-03-14T06:32:57;98220.94;;;7.73;100.00
20444;BME280;10381;53.730;10.010;2023-03-14T06:36:57;98228.47;;;7.76;100.00
20444;BME280;10381;53.730;10.010;2023-03-14T06:41:03;98230.19;;;7.84;100.00
20444;BME280;10381;53.730;10.010;2023-03-14T06:45:04;98237.03;;;7.93;100.00
20444;BME280;10381;53.730;10.010;2023-03-14T06:49:05;98232.94;;;7.90;100.00
20444;BME280;10381;53.730;10.010;2023-03-14T06:53:05;98230.78;;;8.09;100.00
20444;BME280;10381;53.730;10.010;2023-03-14T06:57:07;98240.59;;;8.30;100.00
20444;BME280;10381;53.730;10.010;2023-03-14T07:01:24;98243.78;;;8.40;100.00
20444;BME280;10381;53.730;10.010;2023-03-14T07:05:25;98234.31;;;8.46;100.00
20444;BME280;10381;53.730;10.010;2023-03-14T07:09:26;98227.19;;;8.46;100.00
20444;BME280;10381;53.730;10.010;2023-03-14T07:13:26;98218.72;;;8.51;100.00
20444;BME280;10381;53.730;10.010;2023-03-14T07:17:26;98213.28;;;8.52;100.00
20444;BME280;10381;53.730;10.010;2023-03-14T07:21:27;98209.63;;;8.53;100.00
20444;BME280;10381;53.730;10.010;2023-03-14T07:25:27;98213.38;;;8.59;100.00
20444;BME280;10381;53.730;10.010;2023-03-14T07:29:28;98208.91;;;8.60;100.00
20444;BME280;10381;53.730;10.010;2023-03-14T07:33:28;98208.34;;;8.64;100.00
20444;BME280;10381;53.730;10.010;2023-03-14T07:37:28;98207.56;;;8.85;100.00
20444;BME280;10381;53.730;10.010;2023-03-14T07:41:28;98197.50;;;8.95;100.00
20444;BME280;10381;53.730;10.010;2023-03-14T07:45:29;98188.38;;;8.98;100.00
20444;BME280;10381;53.730;10.010;2023-03-14T07:49:29;98185.03;;;8.89;100.00
20444;BME280;10381;53.730;10.010;2023-03-14T07:53:29;98188.22;;;8.85;100.00
20444;BME280;10381;53.730;10.010;2023-03-14T07:57:30;98183.78;;;8.85;100.00
20444;BME280;10381;53.730;10.010;2023-03-14T08:01:30;98195.59;;;8.89;100.00
20444;BME280;10381;53.730;10.010;2023-03-14T08:05:30;98186.94;;;8.95;100.00
20444;BME280;10381;53.730;10.010;2023-03-14T08:09:33;98186.03;;;9.10;100.00
20444;BME280;10381;53.730;10.010;2023-03-14T08:13:35;98191.81;;;9.20;100.00
20444;BME280;10381;53.730;10.010;2023-03-14T08:17:35;98192.94;;;9.11;100.00
20444;BME280;10381;53.730;10.010;2023-03-14T08:21:36;98179.88;;;9.24;100.00
20444;BME280;10381;53.730;10.010;2023-03-14T08:25:37;98190.63;;;9.23;100.00
20444;BME280;10381;53.730;10.010;2023-03-14T08:29:37;98184.19;;;9.32;100.00
20444;BME280;10381;53.730;10.010;2023-03-14T08:33:38;98186.03;;;9.31;100.00
20444;BME280;10381;53.730;10.010;2023-03-14T08:37:38;98186.28;;;9.15;100.00
20444;BME280;10381;53.730;10.010;2023-03-14T08:41:38;98191.00;;;9.20;100.00
20444;BME280;10381;53.730;10.010;2023-03-14T08:45:41;98195.34;;;9.06;100.00
20444;BME280;10381;53.730;10.010;2023-03-14T08:49:41;98203.09;;;8.86;100.00
20444;BME280;10381;53.730;10.010;2023-03-14T08:53:41;98215.81;;;8.82;100.00
20444;BME280;10381;53.730;10.010;2023-03-14T08:57:42;98211.22;;;8.69;100.00
20444;BME280;10381;53.730;10.010;2023-03-14T09:01:42;98218.91;;;8.64;100.00
20444;BME280;10381;53.730;10.010;2023-03-14T09:05:42;98222.81;;;8.68;100.00
20444;BME280;10381;53.730;10.010;2023-03-14T09:09:42;98225.88;;;8.72;100.00
20444;BME280;10381;53.730;10.010;2023-03-14T09:13:43;98227.25;;;8.68;100.00
20444;BME280;10381;53.730;10.010;2023-03-14T09:17:43;98243.63;;;8.63;100.00
20444;BME280;10381;53.730;10.010;2023-03-14T09:21:44;98238.56;;;8.62;100.00
20444;BME280;10381;53.730;10.010;2023-03-14T09:25:44;98265.78;;;8.47;100.00
20444;BME280;10381;53.730;10.010;2023-03-14T09:29:44;98279.63;;;8.49;100.00
20444;BME280;10381;53.730;10.010;2023-03-14T09:33:45;98298.53;;;8.38;100.00
20444;BME280;10381;53.730;10.010;2023-03-14T09:37:45;98303.91;;;8.30;100.00
20444;BME280;10381;53.730;10.010;2023-03-14T09:41:47;98308.97;;;8.02;100.00
20444;BME280;10381;53.730;10.010;2023-03-14T09:45:50;98337.72;;;7.74;100.00
20444;BME280;10381;53.730;10.010;2023-03-14T09:49:51;98347.16;;;6.82;100.00
20444;BME280;10381;53.730;10.010;2023-03-14T09:53:51;98362.19;;;6.74;100.00
20444;BME280;10381;53.730;10.010;2023-03-14T09:57:57;98385.72;;;6.67;100.00
20444;BME280;10381;53.730;10.010;2023-03-14T10:02:01;98409.47;;;6.34;100.00
20444;BME280;10381;53.730;10.010;2023-03-14T10:06:02;98432.47;;;5.91;100.00
20444;BME280;10381;53.730;10.010;2023-03-14T10:10:22;98465.25;;;5.63;100.00
20444;BME280;10381;53.730;10.010;2023-03-14T10:14:33;98491.13;;;4.99;100.00
20444;BME280;10381;53.730;10.010;2023-03-14T10:18:34;98506.53;;;4.49;100.00
20444;BME280;10381;53.730;10.010;2023-03-14T10:22:35;98520.00;;;4.29;100.00
20444;BME280;10381;53.730;10.010;2023-03-14T10:26:36;98535.84;;;3.91;100.00
20444;BME280;10381;53.730;10.010;2023-03-14T10:30:43;98546.13;;;3.57;100.00
20444;BME280;10381;53.730;10.010;2023-03-14T10:34:44;98550.78;;;3.35;100.00
20444;BME280;10381;53.730;10.010;2023-03-14T10:38:44;98584.63;;;3.47;100.00
20444;BME280;10381;53.730;10.010;2023-03-14T10:42:45;98613.56;;;3.45;100.00
20444;BME280;10381;53.730;10.010;2023-03-14T10:47:01;98624.09;;;3.26;100.00
20444;BME280;10381;53.730;10.010;2023-03-14T10:55:17;98652.03;;;3.35;100.00
20444;BME280;10381;53.730;10.010;2023-03-14T10:59:17;98671.59;;;3.31;100.00
20444;BME280;10381;53.730;10.010;2023-03-14T11:03:18;98686.25;;;3.04;100.00
20444;BME280;10381;53.730;10.010;2023-03-14T11:11:29;98694.19;;;3.12;100.00
20444;BME280;10381;53.730;10.010;2023-03-14T11:15:38;98706.19;;;3.15;100.00
20444;BME280;10381;53.730;10.010;2023-03-14T11:19:46;98714.03;;;3.05;100.00
20444;BME280;10381;53.730;10.010;2023-03-14T11:24:12;98732.47;;;3.33;100.00
20444;BME280;10381;53.730;10.010;2023-03-14T11:28:39;98736.69;;;3.63;100.00
20444;BME280;10381;53.730;10.010;2023-03-14T11:36:59;98774.19;;;3.63;100.00
20444;BME280;10381;53.730;10.010;2023-03-14T11:41:00;98780.69;;;3.50;100.00
20444;BME280;10381;53.730;10.010;2023-03-14T11:45:02;98775.91;;;3.92;100.00
20444;BME280;10381;53.730;10.010;2023-03-14T11:49:14;98780.06;;;3.85;100.00
20444;BME280;10381;53.730;10.010;2023-03-14T11:53:29;98783.41;;;4.15;100.00
20444;BME280;10381;53.730;10.010;2023-03-14T11:57:33;98787.16;;;4.12;100.00
20444;BME280;10381;53.730;10.010;2023-03-14T12:02:05;98776.66;;;4.12;100.00
20444;BME280;10381;53.730;10.010;2023-03-14T12:10:43;98793.38;;;4.39;100.00
20444;BME280;10381;53.730;10.010;2023-03-14T12:14:51;98802.03;;;4.49;100.00
20444;BME280;10381;53.730;10.010;2023-03-14T12:18:53;98827.78;;;4.36;100.00
20444;BME280;10381;53.730;10.010;2023-03-14T12:22:56;98816.59;;;4.34;100.00
20444;BME280;10381;53.730;10.010;2023-03-14T12:27:03;98817.81;;;4.67;100.00
20444;BME280;10381;53.730;10.010;2023-03-14T12:35:34;98850.09;;;4.40;100.00
20444;BME280;10381;53.730;10.010;2023-03-14T12:39:49;98856.78;;;4.52;100.00
20444;BME280;10381;53.730;10.010;2023-03-14T12:43:53;98871.06;;;4.40;100.00
20444;BME280;10381;53.730;10.010;2023-03-14T12:47:57;98882.88;;;4.54;100.00
20444;BME280;10381;53.730;10.010;2023-03-14T12:52:01;98883.25;;;4.68;100.00
20444;BME280;10381;53.730;10.010;2023-03-14T12:56:20;98892.78;;;4.22;100.00
20444;BME280;10381;53.730;10.010;2023-03-14T13:00:30;98905.22;;;4.01;100.00
20444;BME280;10381;53.730;10.010;2023-03-14T13:04:35;98924.53;;;4.00;100.00
20444;BME280;10381;53.730;10.010;2023-03-14T13:08:38;98932.22;;;4.40;100.00
20444;BME280;10381;53.730;10.010;2023-03-14T13:16:51;98959.25;;;4.88;100.00
20444;BME280;10381;53.730;10.010;2023-03-14T13:20:54;98992.78;;;4.94;100.00
20444;BME280;10381;53.730;10.010;2023-03-14T13:25:04;99003.97;;;4.96;100.00
20444;BME280;10381;53.730;10.010;2023-03-14T13:29:21;99007.31;;;5.26;100.00
20444;BME280;10381;53.730;10.010;2023-03-14T13:33:23;99029.69;;;5.30;100.00
20444;BME280;10381;53.730;10.010;2023-03-14T13:37:25;99032.44;;;5.28;100.00
20444;BME280;10381;53.730;10.010;2023-03-14T13:41:27;99049.22;;;5.18;100.00
20444;BME280;10381;53.730;10.010;2023-03-14T13:45:27;99060.06;;;5.88;100.00
20444;BME280;10381;53.730;10.010;2023-03-14T13:49:29;99078.03;;;5.37;100.00
20444;BME280;10381;53.730;10.010;2023-03-14T13:57:50;99080.94;;;5.62;100.00
20444;BME280;10381;53.730;10.010;2023-03-14T14:01:56;99090.00;;;5.02;100.00
20444;BME280;10381;53.730;10.010;2023-03-14T14:05:58;99111.53;;;5.16;100.00
20444;BME280;10381;53.730;10.010;2023-03-14T14:09:59;99117.09;;;5.03;100.00
20444;BME280;10381;53.730;10.010;2023-03-14T14:14:01;99126.59;;;5.13;100.00
20444;BME280;10381;53.730;10.010;2023-03-14T14:18:04;99135.47;;;5.03;100.00
20444;BME280;10381;53.730;10.010;2023-03-14T14:22:06;99140.28;;;4.88;100.00
20444;BME280;10381;53.730;10.010;2023-03-14T14:26:08;99154.41;;;4.87;100.00
20444;BME280;10381;53.730;10.010;2023-03-14T14:34:19;99178.41;;;4.53;100.00
20444;BME280;10381;53.730;10.010;2023-03-14T14:38:19;99193.06;;;4.65;100.00
20444;BME280;10381;53.730;10.010;2023-03-14T14:42:23;99192.09;;;5.05;100.00
20444;BME280;10381;53.730;10.010;2023-03-14T14:46:27;99210.72;;;4.73;100.00
20444;BME280;10381;53.730;10.010;2023-03-14T14:50:38;99228.38;;;4.71;100.00
20444;BME280;10381;53.730;10.010;2023-03-14T14:54:52;99244.44;;;4.97;100.00
20444;BME280;10381;53.730;10.010;2023-03-14T14:58:58;99253.28;;;5.16;100.00
20444;BME280;10381;53.730;10.010;2023-03-14T15:03:00;99284.50;;;4.99;100.00
20444;BME280;10381;53.730;10.010;2023-03-14T15:07:02;99284.09;;;5.13;100.00
20444;BME280;10381;53.730;10.010;2023-03-14T15:11:02;99277.03;;;5.53;100.00
20444;BME280;10381;53.730;10.010;2023-03-14T15:15:02;99282.72;;;5.58;100.00
20444;BME280;10381;53.730;10.010;2023-03-14T15:19:10;99289.34;;;5.13;100.00
20444;BME280;10381;53.730;10.010;2023-03-14T15:23:12;99323.97;;;4.78;100.00
20444;BME280;10381;53.730;10.010;2023-03-14T15:27:14;99310.28;;;4.75;100.00
20444;BME280;10381;53.730;10.010;2023-03-14T15:31:17;99326.34;;;4.91;100.00
20444;BME280;10381;53.730;10.010;2023-03-14T15:35:17;99329.84;;;5.11;100.00
20444;BME280;10381;53.730;10.010;2023-03-14T15:39:17;99341.72;;;5.15;100.00
20444;BME280;10381;53.730;10.010;2023-03-14T15:43:18;99359.78;;;4.89;100.00
20444;BME280;10381;53.730;10.010;2023-03-14T15:47:19;99376.22;;;4.91;100.00
20444;BME280;10381;53.730;10.010;2023-03-14T15:51:19;99378.66;;;4.83;100.00
20444;BME280;10381;53.730;10.010;2023-03-14T15:55:20;99398.06;;;4.61;100.00
20444;BME280;10381;53.730;10.010;2023-03-14T15:59:20;99399.28;;;4.57;100.00
20444;BME280;10381;53.730;10.010;2023-03-14T16:03:20;99416.09;;;4.54;100.00
20444;BME280;10381;53.730;10.010;2023-03-14T16:07:21;99414.34;;;4.34;100.00
20444;BME280;10381;53.730;10.010;2023-03-14T16:11:21;99436.09;;;4.45;100.00
20444;BME280;10381;53.730;10.010;2023-03-14T16:15:21;99430.69;;;4.47;100.00
20444;BME280;10381;53.730;10.010;2023-03-14T16:19:24;99437.16;;;4.74;100.00
20444;BME280;10381;53.730;10.010;2023-03-14T16:23:27;99446.25;;;4.39;100.00
20444;BME280;10381;53.730;10.010;2023-03-14T16:27:27;99464.97;;;4.13;100.00
20444;BME280;10381;53.730;10.010;2023-03-14T16:31:29;99477.56;;;3.98;100.00
20444;BME280;10381;53.730;10.010;2023-03-14T16:35:29;99471.94;;;4.03;100.00
20444;BME280;10381;53.730;10.010;2023-03-14T16:39:30;99479.81;;;4.03;100.00
20444;BME280;10381;53.730;10.010;2023-03-14T16:43:32;99489.25;;;3.94;100.00
20444;BME280;10381;53.730;10.010;2023-03-14T16:47:38;99486.78;;;3.81;100.00
20444;BME280;10381;53.730;10.010;2023-03-14T16:51:38;99496.94;;;3.75;100.00
20444;BME280;10381;53.730;10.010;2023-03-14T16:55:41;99517.78;;;3.65;100.00
20444;BME280;10381;53.730;10.010;2023-03-14T16:59:41;99529.22;;;3.64;100.00
20444;BME280;10381;53.730;10.010;2023-03-14T17:03:44;99536.53;;;3.49;100.00
20444;BME280;10381;53.730;10.010;2023-03-14T17:07:45;99526.31;;;3.35;100.00
20444;BME280;10381;53.730;10.010;2023-03-14T17:11:45;99540.00;;;3.27;100.00
20444;BME280;10381;53.730;10.010;2023-03-14T17:15:45;99565.09;;;3.18;100.00
20444;BME280;10381;53.730;10.010;2023-03-14T17:19:46;99560.94;;;3.27;100.00
20444;BME280;10381;53.730;10.010;2023-03-14T17:23:46;99576.16;;;3.33;100.00
20444;BME280;10381;53.730;10.010;2023-03-14T17:27:46;99595.66;;;3.40;100.00
20444;BME280;10381;53.730;10.010;2023-03-14T17:31:47;99617.09;;;3.23;100.00
20444;BME280;10381;53.730;10.010;2023-03-14T17:35:47;99643.09;;;2.43;100.00
20444;BME280;10381;53.730;10.010;2023-03-14T17:39:47;99645.41;;;1.86;100.00
20444;BME280;10381;53.730;10.010;2023-03-14T17:43:47;99644.75;;;1.96;100.00
20444;BME280;10381;53.730;10.010;2023-03-14T17:47:48;99648.56;;;1.79;100.00
20444;BME280;10381;53.730;10.010;2023-03-14T17:51:48;99659.41;;;1.85;100.00
20444;BME280;10381;53.730;10.010;2023-03-14T17:55:48;99662.03;;;2.22;100.00
20444;BME280;10381;53.730;10.010;2023-03-14T17:59:49;99667.47;;;2.19;100.00
20444;BME280;10381;53.730;10.010;2023-03-14T18:03:52;99683.50;;;2.39;100.00
20444;BME280;10381;53.730;10.010;2023-03-14T18:07:55;99684.56;;;2.36;100.00
20444;BME280;10381;53.730;10.010;2023-03-14T18:11:55;99693.88;;;2.27;100.00
20444;BME280;10381;53.730;10.010;2023-03-14T18:15:55;99707.78;;;2.28;100.00
20444;BME280;10381;53.730;10.010;2023-03-14T18:19:56;99703.88;;;2.46;100.00
20444;BME280;10381;53.730;10.010;2023-03-14T18:23:56;99716.94;;;2.46;100.00
20444;BME280;10381;53.730;10.010;2023-03-14T18:27:57;99745.00;;;2.31;100.00
20444;BME280;10381;53.730;10.010;2023-03-14T18:31:57;99750.97;;;2.21;100.00
20444;BME280;10381;53.730;10.010;2023-03-14T18:35:57;99762.97;;;2.23;100.00
20444;BME280;10381;53.730;10.010;2023-03-14T18:39:57;99766.09;;;2.28;100.00
20444;BME280;10381;53.730;10.010;2023-03-14T18:43:58;99763.84;;;2.24;100.00
20444;BME280;10381;53.730;10.010;2023-03-14T18:47:58;99778.28;;;2.17;100.00
20444;BME280;10381;53.730;10.010;2023-03-14T18:51:59;99762.06;;;2.11;100.00
20444;BME280;10381;53.730;10.010;2023-03-14T18:55:59;99775.25;;;1.84;100.00
20444;BME280;10381;53.730;10.010;2023-03-14T19:00:00;99784.66;;;1.87;100.00
20444;BME280;10381;53.730;10.010;2023-03-14T19:04:02;99796.38;;;1.81;100.00
20444;BME280;10381;53.730;10.010;2023-03-14T19:08:03;99812.25;;;1.78;100.00
20444;BME280;10381;53.730;10.010;2023-03-14T19:12:03;99816.31;;;1.82;100.00
20444;BME280;10381;53.730;10.010;2023-03-14T19:16:04;99817.97;;;1.70;100.00
20444;BME280;10381;53.730;10.010;2023-03-14T19:20:05;99838.75;;;1.59;100.00
20444;BME280;10381;53.730;10.010;2023-03-14T19:24:06;99837.19;;;1.57;100.00
20444;BME280;10381;53.730;10.010;2023-03-14T19:28:06;99846.28;;;1.64;100.00
20444;BME280;10381;53.730;10.010;2023-03-14T19:32:08;99852.94;;;1.55;100.00
20444;BME280;10381;53.730;10.010;2023-03-14T19:40:20;99876.56;;;1.66;100.00
20444;BME280;10381;53.730;10.010;2023-03-14T19:44:20;99886.47;;;1.61;100.00
20444;BME280;10381;53.730;10.010;2023-03-14T19:48:21;99879.53;;;1.47;100.00
20444;BME280;10381;53.730;10.010;2023-03-14T19:52:21;99898.19;;;1.41;100.00
20444;BME280;10381;53.730;10.010;2023-03-14T19:56:21;99899.53;;;1.34;100.00
20444;BME280;10381;53.730;10.010;2023-03-14T20:00:23;99903.97;;;1.19;100.00
20444;BME280;10381;53.730;10.010;2023-03-14T20:04:24;99918.63;;;1.08;100.00
20444;BME280;10381;53.730;10.010;2023-03-14T20:08:24;99922.63;;;1.13;100.00
20444;BME280;10381;53.730;10.010;2023-03-14T20:12:29;99924.66;;;1.08;100.00
20444;BME280;10381;53.730;10.010;2023-03-14T20:16:29;99946.28;;;1.10;100.00
20444;BME280;10381;53.730;10.010;2023-03-14T20:20:33;99949.81;;;1.23;100.00
20444;BME280;10381;53.730;10.010;2023-03-14T20:24:33;99972.50;;;1.36;100.00
20444;BME280;10381;53.730;10.010;2023-03-14T20:28:34;99980.84;;;1.55;100.00
20444;BME280;10381;53.730;10.010;2023-03-14T20:32:34;99966.22;;;1.53;100.00
20444;BME280;10381;53.730;10.010;2023-03-14T20:36:34;99972.84;;;1.44;100.00
20444;BME280;10381;53.730;10.010;2023-03-14T20:40:35;99978.22;;;1.28;100.00
20444;BME280;10381;53.730;10.010;2023-03-14T20:44:35;99983.47;;;1.14;100.00
20444;BME280;10381;53.730;10.010;2023-03-14T20:48:35;99998.06;;;1.31;100.00
20444;BME280;10381;53.730;10.010;2023-03-14T20:52:38;100012.88;;;1.30;100.00
20444;BME280;10381;53.730;10.010;2023-03-14T20:56:38;100023.06;;;1.20;100.00
20444;BME280;10381;53.730;10.010;2023-03-14T21:00:43;100028.28;;;1.06;100.00
20444;BME280;10381;53.730;10.010;2023-03-14T21:04:45;100030.63;;;0.96;100.00
20444;BME280;10381;53.730;10.010;2023-03-14T21:08:45;100032.75;;;0.90;100.00
20444;BME280;10381;53.730;10.010;2023-03-14T21:12:47;100035.72;;;0.83;100.00
20444;BME280;10381;53.730;10.010;2023-03-14T21:16:48;100046.03;;;0.71;100.00
20444;BME280;10381;53.730;10.010;2023-03-14T21:20:51;100055.63;;;0.70;100.00
20444;BME280;10381;53.730;10.010;2023-03-14T21:24:54;100059.34;;;0.66;100.00
20444;BME280;10381;53.730;10.010;2023-03-14T21:28:54;100069.03;;;0.78;100.00
20444;BME280;10381;53.730;10.010;2023-03-14T21:32:54;100068.84;;;0.81;100.00
20444;BME280;10381;53.730;10.010;2023-03-14T21:36:55;100072.47;;;0.64;100.00
20444;BME280;10381;53.730;10.010;2023-03-14T21:40:56;100082.50;;;0.56;100.00
20444;BME280;10381;53.730;10.010;2023-03-14T21:44:56;100085.63;;;0.47;100.00